Time;durP1;ratioP1;P1;durP2;ratioP2;P2;SDS_P1;SDS_P2;PMS_P1;PMS_P2;Temp;Humidity;BMP_temperature;BMP_pressure;BME280_temperature;BME280_humidity;BME280_pressure;Samples;Min_cycle;Max_cycle;Signal;HPM_P1;HPM_P2
2023/08/05 00:00:22;;;;;;;8.02;4.70;;;;;;;14.31;100.00;95672.56;1015030;29;20024;-77
2023/08/05 00:00:53;;;;;;;8.30;5.00;;;;;;;14.33;100.00;95674.94;1022077;29;20500;-75
2023/08/05 00:01:23;;;;;;;5.57;4.53;;;;;;;14.42;100.00;95682.97;1026234;28;20070;-76
2023/08/05 00:01:54;;;;;;;5.22;4.20;;;;;;;14.44;100.00;95691.41;1022185;29;20038;-75
2023/08/05 00:02:24;;;;;;;9.18;4.97;;;;;;;14.42;100.00;95694.34;1010464;29;20111;-76
2023/08/05 00:02:55;;;;;;;6.45;4.65;;;;;;;14.35;100.00;95678.88;1014547;29;20036;-77
2023/08/05 00:03:26;;;;;;;6.68;4.28;;;;;;;14.43;100.00;95689.84;1018514;29;20031;-76
2023/08/05 00:03:56;;;;;;;7.35;5.05;;;;;;;14.43;100.00;95690.63;1018325;28;20091;-76
2023/08/05 00:04:26;;;;;;;6.05;4.72;;;;;;;14.35;100.00;95678.88;1022248;29;20082;-76
2023/08/05 00:04:57;;;;;;;7.47;4.78;;;;;;;14.40;100.00;95696.47;1014492;29;20044;-75
2023/08/05 00:05:27;;;;;;;6.43;4.53;;;;;;;14.37;100.00;95691.75;1018323;29;20027;-76
2023/08/05 00:05:58;;;;;;;7.82;5.07;;;;;;;14.31;100.00;95683.13;1018280;29;20040;-78
2023/08/05 00:06:28;;;;;;;6.15;5.20;;;;;;;14.24;100.00;95676.66;1022400;28;20063;-75
2023/08/05 00:06:59;;;;;;;6.22;5.20;;;;;;;14.36;100.00;95701.53;1014350;29;20028;-76
2023/08/05 00:07:30;;;;;;;7.60;5.10;;;;;;;14.30;100.00;95691.34;1018218;29;20447;-75
2023/08/05 00:08:00;;;;;;;8.88;5.40;;;;;;;14.27;100.00;95692.69;1022391;29;20051;-75
2023/08/05 00:08:31;;;;;;;9.20;5.18;;;;;;;14.32;100.00;95702.41;1022518;28;20543;-77
2023/08/05 00:09:01;;;;;;;6.43;4.80;;;;;;;14.32;100.00;95699.78;1026235;28;20540;-74
2023/08/05 00:09:31;;;;;;;6.82;5.28;;;;;;;14.34;100.00;95708.16;1026152;28;20038;-76
2023/08/05 00:10:02;;;;;;;6.07;5.45;;;;;;;14.34;100.00;95708.94;1026441;28;20034;-75
2023/08/05 00:10:32;;;;;;;8.60;5.18;;;;;;;14.32;100.00;95705.06;1025721;28;20066;-74
2023/08/05 00:11:03;;;;;;;7.93;5.03;;;;;;;14.23;100.00;95696.22;1022328;28;20034;-75
2023/08/05 00:11:33;;;;;;;8.70;5.00;;;;;;;14.26;100.00;95695.63;1014251;28;20434;-75
2023/08/05 00:12:04;;;;;;;9.25;5.65;;;;;;;14.26;100.00;95695.63;1010420;29;20037;-76
2023/08/05 00:12:35;;;;;;;6.05;4.88;;;;;;;14.31;100.00;95704.25;1010441;29;20024;-76
2023/08/05 00:13:05;;;;;;;8.65;5.38;;;;;;;14.32;100.00;95700.56;1011971;29;20036;-75
2023/08/05 00:13:35;;;;;;;7.93;5.15;;;;;;;14.31;100.00;95698.97;1014795;29;20028;-74
2023/08/05 00:14:06;;;;;;;6.78;5.25;;;;;;;14.33;100.00;95698.69;1018282;29;20032;-76
2023/08/05 00:14:37;;;;;;;6.97;5.15;;;;;;;14.33;100.00;95702.13;1018155;29;20035;-77
2023/08/05 00:15:07;;;;;;;6.55;5.50;;;;;;;14.34;100.00;95697.63;1022204;28;20066;-77
2023/08/05 00:15:38;;;;;;;7.78;5.20;;;;;;;14.28;100.00;95686.34;1021944;28;20078;-76
2023/08/05 00:16:09;;;;;;;5.55;4.65;;;;;;;14.31;100.00;95695.53;1018208;29;20138;-76
2023/08/05 00:16:39;;;;;;;6.93;5.68;;;;;;;14.32;100.00;95697.13;1018766;29;20031;-76
2023/08/05 00:17:10;;;;;;;7.72;5.45;;;;;;;14.31;100.00;95704.25;1019003;29;20043;-76
2023/08/05 00:17:40;;;;;;;7.07;5.15;;;;;;;14.27;100.00;95691.91;1019256;28;20486;-75
2023/08/05 00:18:11;;;;;;;8.23;5.30;;;;;;;14.32;100.00;95699.78;1018720;29;20098;-74
2023/08/05 00:18:41;;;;;;;9.70;5.63;;;;;;;14.28;100.00;95704.81;1019200;29;20027;-75
2023/08/05 00:19:12;;;;;;;8.80;5.72;;;;;;;14.28;100.00;95704.81;1018919;29;20039;-75
2023/08/05 00:19:43;;;;;;;6.43;5.25;;;;;;;14.32;100.00;95710.34;1021439;28;20043;-75
2023/08/05 00:20:13;;;;;;;6.47;5.43;;;;;;;14.31;100.00;95712.16;1030834;28;20084;-75
2023/08/05 00:20:44;;;;;;;7.72;5.35;;;;;;;14.28;100.00;95702.19;1030254;28;20084;-75
2023/08/05 00:21:14;;;;;;;7.18;5.60;;;;;;;14.32;100.00;95707.69;1023870;28;20090;-75
2023/08/05 00:21:44;;;;;;;11.13;5.72;;;;;;;14.32;100.00;95711.13;1021419;29;20034;-75
2023/08/05 00:22:15;;;;;;;6.88;5.22;;;;;;;14.32;100.00;95711.13;1022581;29;20536;-75
2023/08/05 00:22:45;;;;;;;7.38;5.53;;;;;;;14.25;100.00;95700.13;1022993;29;20030;-75
2023/08/05 00:23:16;;;;;;;9.55;6.20;;;;;;;14.32;100.00;95712.97;1022783;28;20027;-75
2023/08/05 00:23:46;;;;;;;10.25;6.20;;;;;;;14.31;100.00;95714.81;1027025;28;20530;-75
2023/08/05 00:24:17;;;;;;;7.47;6.68;;;;;;;14.27;100.00;95705.88;1026689;28;20026;-75
2023/08/05 00:24:47;;;;;;;7.40;6.00;;;;;;;14.33;100.00;95715.31;1021146;28;20731;-75
2023/08/05 00:25:18;;;;;;;9.38;6.43;;;;;;;14.29;100.00;95711.69;1026903;28;20030;-75
2023/08/05 00:25:48;;;;;;;7.28;6.25;;;;;;;14.35;100.00;95715.81;1018967;29;20046;-75
2023/08/05 00:26:19;;;;;;;9.25;6.30;;;;;;;14.35;100.00;95718.47;1022697;28;20062;-75
2023/08/05 00:26:49;;;;;;;10.38;6.22;;;;;;;14.36;100.00;95730.59;1018892;29;20027;-76
2023/08/05 00:27:20;;;;;;;8.80;6.07;;;;;;;14.36;100.00;95732.44;1011159;29;20100;-75
2023/08/05 00:27:50;;;;;;;10.80;6.40;;;;;;;14.33;100.00;95725.09;1022821;29;20031;-74
2023/08/05 00:28:20;;;;;;;12.52;7.32;;;;;;;14.35;100.00;95730.84;1022710;29;20031;-75
2023/08/05 00:28:51;;;;;;;9.45;7.43;;;;;;;14.29;100.00;95719.59;1022959;28;20016;-75
2023/08/05 00:29:21;;;;;;;8.95;7.07;;;;;;;14.27;100.00;95716.44;1022903;29;20027;-76
2023/08/05 00:29:53;;;;;;;11.23;7.70;;;;;;;14.30;100.00;95718.53;1013058;29;20028;-75
2023/08/05 00:30:24;;;;;;;9.13;6.82;;;;;;;14.34;100.00;95730.06;1014469;29;20028;-75
2023/08/05 00:30:54;;;;;;;9.27;7.47;;;;;;;14.26;100.00;95717.53;1014905;29;20503;-75
2023/08/05 00:31:25;;;;;;;9.27;7.50;;;;;;;14.33;100.00;95717.94;1019076;29;20055;-75
2023/08/05 00:31:56;;;;;;;9.00;7.72;;;;;;;14.29;100.00;95719.59;1023514;28;20023;-76
2023/08/05 00:32:27;;;;;;;8.60;7.10;;;;;;;14.34;100.00;95718.72;1022714;29;20023;-76
2023/08/05 00:32:57;;;;;;;11.75;8.25;;;;;;;14.27;100.00;95708.53;1019248;29;20055;-75
2023/08/05 00:33:28;;;;;;;10.82;7.70;;;;;;;14.38;100.00;95720.53;1014909;29;20598;-75
2023/08/05 00:33:58;;;;;;;11.50;8.73;;;;;;;14.36;100.00;95717.38;1011167;29;20528;-75
2023/08/05 00:34:29;;;;;;;10.50;8.15;;;;;;;14.38;100.00;95722.34;1011088;29;20067;-75
2023/08/05 00:34:59;;;;;;;10.30;9.20;;;;;;;14.37;100.00;95718.94;1014842;29;20060;-76
2023/08/05 00:35:30;;;;;;;10.73;8.55;;;;;;;14.34;100.00;95714.22;1011047;29;20024;-76
2023/08/05 00:36:00;;;;;;;14.45;9.20;;;;;;;14.36;100.00;95722.66;1011257;29;20037;-77
2023/08/05 00:36:31;;;;;;;12.15;9.52;;;;;;;14.41;100.00;95723.66;1011611;29;20037;-75
2023/08/05 00:37:01;;;;;;;12.55;9.93;;;;;;;14.32;100.00;95710.34;1015082;29;20032;-75
2023/08/05 00:37:32;;;;;;;12.45;10.65;;;;;;;14.33;100.00;95725.09;1022893;29;20123;-75
2023/08/05 00:38:02;;;;;;;14.43;10.63;;;;;;;14.32;100.00;95713.75;1031018;28;20522;-76
2023/08/05 00:38:33;;;;;;;14.73;11.38;;;;;;;14.37;100.00;95729.50;1026652;28;20683;-76
2023/08/05 00:39:03;;;;;;;15.77;10.63;;;;;;;14.39;100.00;95726.59;1023086;28;20082;-75
2023/08/05 00:39:34;;;;;;;17.67;11.93;;;;;;;14.38;100.00;95731.09;1030880;28;20027;-76
2023/08/05 00:40:05;;;;;;;17.58;11.55;;;;;;;14.30;100.00;95713.25;1026907;28;20482;-75
2023/08/05 00:40:35;;;;;;;16.42;11.48;;;;;;;14.38;100.00;95725.00;1026223;28;20031;-75
2023/08/05 00:41:06;;;;;;;12.60;11.30;;;;;;;14.36;100.00;95727.94;1022754;29;20062;-74
2023/08/05 00:41:36;;;;;;;14.63;12.05;;;;;;;14.35;100.00;95730.84;1022810;28;20031;-74
2023/08/05 00:42:07;;;;;;;13.65;10.98;;;;;;;14.35;100.00;95723.75;1030719;28;20022;-75
2023/08/05 00:42:37;;;;;;;16.20;11.88;;;;;;;14.34;100.00;95727.44;1026489;28;20057;-75
2023/08/05 00:43:08;;;;;;;13.95;12.10;;;;;;;14.33;100.00;95733.78;1022897;29;20016;-75
2023/08/05 00:43:38;;;;;;;13.75;11.18;;;;;;;14.36;100.00;95729.81;1018731;29;20051;-75
2023/08/05 00:44:09;;;;;;;14.45;11.57;;;;;;;14.35;100.00;95736.94;1022873;29;20032;-75
2023/08/05 00:44:39;;;;;;;12.90;10.57;;;;;;;14.29;100.00;95730.16;1022907;29;20030;-74
2023/08/05 00:45:09;;;;;;;15.95;11.77;;;;;;;14.32;100.00;95732.22;1024538;28;20027;-74
2023/08/05 00:45:40;;;;;;;14.35;10.68;;;;;;;14.28;100.00;95723.28;1026970;28;20477;-76
2023/08/05 00:46:11;;;;;;;13.07;10.32;;;;;;;14.33;100.00;95725.88;1018888;29;20020;-77
2023/08/05 00:46:41;;;;;;;12.75;10.18;;;;;;;14.33;100.00;95728.50;1019068;29;20107;-75
2023/08/05 00:47:12;;;;;;;14.43;10.30;;;;;;;14.30;100.00;95723.03;1022745;29;20536;-78
2023/08/05 00:47:43;;;;;;;12.57;10.52;;;;;;;14.35;100.00;95726.38;1018982;29;20111;-76
2023/08/05 00:48:13;;;;;;;12.20;10.18;;;;;;;14.29;100.00;95727.50;1018898;29;20032;-75
2023/08/05 00:48:44;;;;;;;10.32;9.18;;;;;;;14.35;100.00;95731.66;1019043;29;20036;-75
2023/08/05 00:49:14;;;;;;;12.13;10.10;;;;;;;14.33;100.00;95733.78;1014988;29;20517;-75
2023/08/05 00:49:49;;;;;;;12.25;9.60;;;;;;;14.32;100.00;95731.44;1019010;29;20019;-75
2023/08/05 00:50:20;;;;;;;11.80;10.60;;;;;;;14.29;100.00;95735.44;1025941;28;20026;-76
2023/08/05 00:50:50;;;;;;;14.25;10.13;;;;;;;14.31;100.00;95732.50;1022824;29;20015;-75
2023/08/05 00:51:21;;;;;;;10.93;9.43;;;;;;;14.28;100.00;95728.56;1023599;28;20020;-75
2023/08/05 00:51:52;;;;;;;10.30;9.20;;;;;;;14.27;100.00;95727.00;1026662;28;20023;-74
2023/08/05 00:52:22;;;;;;;11.35;9.38;;;;;;;14.24;100.00;95718.88;1023184;28;20019;-76
2023/08/05 00:52:53;;;;;;;10.65;9.48;;;;;;;14.29;100.00;95727.50;1019025;29;20026;-76
2023/08/05 00:53:23;;;;;;;12.52;9.52;;;;;;;14.26;100.00;95725.44;1022784;29;20028;-76
2023/08/05 00:53:54;;;;;;;10.32;9.23;;;;;;;14.30;100.00;95729.06;1022779;29;20082;-76
2023/08/05 00:54:24;;;;;;;12.98;9.55;;;;;;;14.30;100.00;95728.31;1022976;29;20027;-75
2023/08/05 00:54:55;;;;;;;11.48;9.52;;;;;;;14.24;100.00;95727.56;1022861;29;20027;-75
2023/08/05 00:55:25;;;;;;;13.10;9.20;;;;;;;14.26;100.00;95730.72;1022654;28;20026;-78
2023/08/05 00:55:56;;;;;;;11.77;8.70;;;;;;;14.26;100.00;95732.59;1022669;29;20026;-77
2023/08/05 00:56:26;;;;;;;10.63;9.25;;;;;;;14.23;100.00;95723.38;1022889;29;20027;-77
2023/08/05 00:56:56;;;;;;;11.07;8.63;;;;;;;14.24;100.00;95734.72;1022731;28;20535;-76
2023/08/05 00:57:27;;;;;;;10.93;8.85;;;;;;;14.17;100.00;95721.09;1022761;29;20019;-75
2023/08/05 00:57:57;;;;;;;10.32;8.98;;;;;;;14.14;100.00;95719.81;1022901;29;20046;-76
2023/08/05 00:58:31;;;;;;;9.73;8.73;;;;;;;14.20;100.00;95729.22;1018883;29;20102;-75
2023/08/05 00:59:01;;;;;;;13.05;8.32;;;;;;;14.24;100.00;95727.56;1022835;29;20023;-74
2023/08/05 00:59:32;;;;;;;11.82;8.57;;;;;;;14.25;100.00;95731.00;1014705;29;20059;-77
2023/08/05 01:00:03;;;;;;;10.23;9.07;;;;;;;14.17;100.00;95705.25;1019021;29;20474;-75
2023/08/05 01:00:33;;;;;;;12.57;8.75;;;;;;;14.24;100.00;95724.16;1026154;28;20081;-77
2023/08/05 01:01:04;;;;;;;10.60;9.30;;;;;;;14.17;100.00;95708.69;1022864;28;20078;-77
2023/08/05 01:01:34;;;;;;;13.13;9.73;;;;;;;14.24;100.00;95713.59;1018752;28;20689;-75
2023/08/05 01:02:05;;;;;;;10.38;9.27;;;;;;;14.25;100.00;95715.97;1019870;28;20024;-76
2023/08/05 01:02:36;;;;;;;9.80;8.77;;;;;;;14.06;100.00;95691.44;1018783;28;20035;-75
2023/08/05 01:03:06;;;;;;;10.85;8.77;;;;;;;14.19;100.00;95711.81;1015140;29;20039;-76
2023/08/05 01:03:37;;;;;;;10.90;9.23;;;;;;;14.22;100.00;95707.81;1019019;28;20066;-76
2023/08/05 01:04:08;;;;;;;10.70;8.80;;;;;;;14.21;100.00;95704.38;1022652;29;20089;-75
2023/08/05 01:04:38;;;;;;;10.70;8.38;;;;;;;14.18;100.00;95702.31;1018775;29;20024;-75
2023/08/05 01:05:09;;;;;;;11.45;8.77;;;;;;;14.16;100.00;95707.13;1026942;28;20026;-75
2023/08/05 01:05:39;;;;;;;9.57;8.65;;;;;;;14.22;100.00;95711.25;1026623;28;20027;-76
2023/08/05 01:06:09;;;;;;;9.85;8.55;;;;;;;14.20;100.00;95713.38;1022828;29;20035;-77
2023/08/05 01:06:40;;;;;;;10.70;8.05;;;;;;;14.17;100.00;95699.97;1026777;28;20117;-76
2023/08/05 01:07:10;;;;;;;9.40;8.32;;;;;;;14.19;100.00;95703.13;1026720;28;20508;-74
2023/08/05 01:07:42;;;;;;;11.10;8.05;;;;;;;14.17;100.00;95713.97;1022870;29;20500;-75
2023/08/05 01:08:13;;;;;;;9.30;8.10;;;;;;;14.20;100.00;95705.47;1014763;29;20079;-75
2023/08/05 01:08:43;;;;;;;9.95;7.97;;;;;;;14.19;100.00;95711.81;1015473;29;20127;-77
2023/08/05 01:09:14;;;;;;;8.98;8.07;;;;;;;14.14;100.00;95696.06;1018617;29;20032;-75
2023/08/05 01:09:44;;;;;;;9.50;8.50;;;;;;;14.19;100.00;95698.63;1015047;29;20060;-76
2023/08/05 01:10:15;;;;;;;9.50;8.52;;;;;;;14.18;100.00;95697.03;1026665;28;20022;-77
2023/08/05 01:10:45;;;;;;;11.85;8.75;;;;;;;14.18;100.00;95694.41;1026144;28;20027;-75
2023/08/05 01:11:16;;;;;;;9.45;8.38;;;;;;;14.22;100.00;95695.44;1013539;29;20118;-73
2023/08/05 01:11:46;;;;;;;10.73;8.27;;;;;;;14.21;100.00;95696.47;1011215;29;20060;-75
2023/08/05 01:12:17;;;;;;;10.73;8.57;;;;;;;14.22;100.00;95694.63;1018596;29;20027;-75
2023/08/05 01:12:47;;;;;;;9.25;8.02;;;;;;;14.21;100.00;95699.13;1018960;28;20144;-74
2023/08/05 01:13:18;;;;;;;9.35;7.82;;;;;;;14.21;100.00;95693.84;1026678;28;20030;-76
2023/08/05 01:13:48;;;;;;;8.55;7.53;;;;;;;14.18;100.00;95693.63;1026887;28;20030;-75
2023/08/05 01:14:18;;;;;;;9.68;8.68;;;;;;;14.20;100.00;95692.28;1022577;29;20031;-75
2023/08/05 01:14:49;;;;;;;10.02;8.13;;;;;;;14.21;100.00;95693.84;1022742;28;20030;-79
2023/08/05 01:15:19;;;;;;;8.70;7.63;;;;;;;14.18;100.00;95694.41;1014940;29;20036;-76
2023/08/05 01:15:50;;;;;;;8.63;7.65;;;;;;;14.22;100.00;95695.44;1014713;29;20542;-75
2023/08/05 01:16:20;;;;;;;8.98;8.05;;;;;;;14.22;100.00;95692.78;1015738;29;20549;-75
2023/08/05 01:16:51;;;;;;;9.75;7.97;;;;;;;14.25;100.00;95694.84;1014838;29;20028;-75
2023/08/05 01:17:21;;;;;;;8.57;7.53;;;;;;;14.24;100.00;95692.47;1014789;29;20036;-75
2023/08/05 01:17:52;;;;;;;8.43;7.63;;;;;;;14.22;100.00;95690.16;1010942;29;20566;-75
2023/08/05 01:18:23;;;;;;;8.63;6.97;;;;;;;14.24;100.00;95695.91;1015081;29;20443;-75
2023/08/05 01:18:54;;;;;;;8.82;7.93;;;;;;;14.22;100.00;95689.34;1014728;29;20040;-75
2023/08/05 01:19:25;;;;;;;9.18;7.22;;;;;;;14.16;100.00;95686.00;1018860;29;20040;-75
2023/08/05 01:19:55;;;;;;;9.75;7.28;;;;;;;14.18;100.00;95689.13;1018601;29;20425;-75
2023/08/05 01:20:29;;;;;;;7.25;6.55;;;;;;;14.20;100.00;95686.22;1014248;29;20032;-75
2023/08/05 01:20:59;;;;;;;9.02;6.93;;;;;;;14.16;100.00;95688.66;1014776;29;20641;-75
2023/08/05 01:21:45;;;;;;;8.48;6.78;;;;;;;14.10;100.00;95676.59;1018597;29;20019;-74
2023/08/05 01:22:28;;;;;;;8.20;6.75;;;;;;;14.11;100.00;95678.94;1014508;29;20160;-75
2023/08/05 01:23:02;;;;;;;10.55;6.50;;;;;;;14.15;100.00;95687.88;1014672;29;20043;-74
2023/08/05 01:23:56;;;;;;;7.85;6.50;;;;;;;14.15;100.00;95685.22;1022715;29;20078;-75
2023/08/05 01:24:48;;;;;;;7.07;6.35;;;;;;;14.15;100.00;95681.78;1022785;29;20023;-75
2023/08/05 01:25:31;;;;;;;7.43;6.53;;;;;;;14.16;100.00;95680.72;1026787;28;20035;-76
2023/08/05 01:26:03;;;;;;;9.68;6.68;;;;;;;14.11;100.00;95673.66;1026779;28;20030;-76
2023/08/05 01:26:33;;;;;;;8.25;6.60;;;;;;;14.17;100.00;95682.28;1022507;29;20097;-75
2023/08/05 01:27:04;;;;;;;9.23;6.45;;;;;;;14.18;100.00;95685.72;1014795;29;20095;-74
2023/08/05 01:27:34;;;;;;;10.23;6.93;;;;;;;14.16;100.00;95683.38;1014566;29;20649;-75
2023/08/05 01:28:05;;;;;;;7.15;6.22;;;;;;;14.12;100.00;95677.88;1018197;29;20035;-75
2023/08/05 01:28:35;;;;;;;8.98;6.68;;;;;;;14.11;100.00;95673.66;1018019;29;20466;-75
2023/08/05 01:29:06;;;;;;;7.97;6.80;;;;;;;14.09;100.00;95681.09;1018674;29;20422;-75
2023/08/05 01:29:36;;;;;;;9.35;7.25;;;;;;;14.13;100.00;95676.03;1014641;29;20055;-74
2023/08/05 01:30:07;;;;;;;8.10;6.82;;;;;;;14.15;100.00;95679.13;1022505;28;20477;-74
2023/08/05 01:30:38;;;;;;;6.93;6.22;;;;;;;14.13;100.00;95676.03;1021814;29;20027;-75
2023/08/05 01:31:08;;;;;;;7.65;6.85;;;;;;;14.13;100.00;95673.38;1022692;29;20028;-75
2023/08/05 01:31:38;;;;;;;8.48;6.45;;;;;;;14.13;100.00;95668.09;1022727;28;20046;-76
2023/08/05 01:32:09;;;;;;;10.65;7.47;;;;;;;14.08;100.00;95670.81;1026234;28;20030;-74
2023/08/05 01:32:39;;;;;;;10.45;6.75;;;;;;;14.14;100.00;95677.59;1022494;29;20027;-75
2023/08/05 01:33:10;;;;;;;7.30;6.60;;;;;;;14.05;100.00;95658.19;1022540;28;20055;-76
2023/08/05 01:33:40;;;;;;;7.65;6.90;;;;;;;14.11;100.00;95670.22;1018741;29;20534;-75
2023/08/05 01:34:11;;;;;;;7.35;6.50;;;;;;;14.12;100.00;95671.81;1018541;29;20123;-74
2023/08/05 01:34:42;;;;;;;7.45;6.75;;;;;;;14.10;100.00;95666.81;1022731;29;20102;-76
2023/08/05 01:35:12;;;;;;;8.48;7.30;;;;;;;14.08;100.00;95663.69;1014683;29;20020;-75
2023/08/05 01:35:49;;;;;;;8.25;6.85;;;;;;;14.13;100.00;95670.75;1014924;29;20035;-75
2023/08/05 01:36:20;;;;;;;8.10;7.15;;;;;;;14.10;100.00;95660.75;1015762;29;20032;-75
2023/08/05 01:36:51;;;;;;;8.68;7.03;;;;;;;14.11;100.00;95654.41;1022024;28;20027;-74
2023/08/05 01:37:21;;;;;;;7.68;6.85;;;;;;;14.13;100.00;95660.19;1018627;29;20035;-75
2023/08/05 01:37:52;;;;;;;9.60;6.68;;;;;;;14.12;100.00;95658.63;1018693;29;20482;-74
2023/08/05 01:38:22;;;;;;;8.75;6.85;;;;;;;14.08;100.00;95652.34;1014722;29;20028;-74
2023/08/05 01:38:53;;;;;;;8.27;6.68;;;;;;;14.01;100.00;95641.34;1010579;29;20032;-76
2023/08/05 01:39:23;;;;;;;9.73;6.38;;;;;;;14.19;100.00;95658.28;1010754;29;20024;-75
2023/08/05 01:39:53;;;;;;;8.68;7.30;;;;;;;14.19;100.00;95656.41;1018552;29;20043;-76
2023/08/05 01:40:28;;;;;;;7.85;7.05;;;;;;;14.14;100.00;95645.91;1018239;29;20562;-74
2023/08/05 01:40:58;;;;;;;10.30;6.70;;;;;;;14.18;100.00;95646.91;1015089;29;20028;-77
2023/08/05 01:41:29;;;;;;;8.80;7.10;;;;;;;14.20;100.00;95657.97;1017659;29;20126;-75
2023/08/05 01:41:59;;;;;;;8.35;7.00;;;;;;;14.21;100.00;95654.25;1014742;29;20048;-74
2023/08/05 01:42:30;;;;;;;9.30;6.68;;;;;;;14.21;100.00;95659.53;1015246;29;20028;-73
2023/08/05 01:43:02;;;;;;;10.95;7.75;;;;;;;14.21;100.00;95654.25;1018924;29;20603;-75
2023/08/05 01:43:32;;;;;;;8.43;7.07;;;;;;;14.25;100.00;95652.63;1022536;28;20078;-76
2023/08/05 01:44:03;;;;;;;7.82;6.93;;;;;;;14.25;100.00;95657.91;1026720;28;20502;-75
2023/08/05 01:44:34;;;;;;;8.68;7.05;;;;;;;14.23;100.00;95652.13;1026957;28;20026;-75
2023/08/05 01:45:05;;;;;;;8.68;7.10;;;;;;;14.16;100.00;95638.50;1030588;28;20034;-75
2023/08/05 01:45:35;;;;;;;8.02;7.28;;;;;;;14.22;100.00;95653.19;1022397;29;20030;-74
2023/08/05 01:46:06;;;;;;;7.63;6.88;;;;;;;14.23;100.00;95653.97;1015001;29;20039;-76
2023/08/05 01:46:36;;;;;;;9.55;7.18;;;;;;;14.21;100.00;95641.06;1018564;29;20031;-77
2023/08/05 01:47:07;;;;;;;8.05;7.32;;;;;;;14.12;100.00;95632.25;1022612;29;20019;-75
2023/08/05 01:47:37;;;;;;;8.95;6.75;;;;;;;14.23;100.00;95644.19;1022980;28;20023;-75
2023/08/05 01:48:08;;;;;;;7.38;6.68;;;;;;;14.19;100.00;95643.22;1014973;29;20039;-75
2023/08/05 01:48:38;;;;;;;7.50;6.70;;;;;;;14.23;100.00;95643.41;1022679;28;20027;-74
2023/08/05 01:49:09;;;;;;;8.38;7.47;;;;;;;14.24;100.00;95642.34;1022970;29;20023;-74
2023/08/05 01:49:39;;;;;;;7.70;6.90;;;;;;;14.22;100.00;95647.91;1022702;29;20027;-76
2023/08/05 01:50:09;;;;;;;7.78;6.80;;;;;;;14.15;100.00;95640.38;1018575;28;20028;-75
2023/08/05 01:50:40;;;;;;;7.80;7.10;;;;;;;14.16;100.00;95633.22;1018109;29;20481;-74
2023/08/05 01:51:10;;;;;;;8.82;7.13;;;;;;;14.22;100.00;95641.84;1022729;29;20035;-75
2023/08/05 01:51:41;;;;;;;8.63;7.60;;;;;;;14.20;100.00;95636.84;1022643;29;20146;-76
2023/08/05 01:52:11;;;;;;;10.23;6.82;;;;;;;14.20;100.00;95641.34;1018395;29;20027;-75
2023/08/05 01:52:42;;;;;;;8.00;7.20;;;;;;;14.14;100.00;95636.13;1022812;28;20553;-76
2023/08/05 01:53:12;;;;;;;9.02;7.35;;;;;;;14.20;100.00;95644.00;1026672;28;20023;-77
2023/08/05 01:53:43;;;;;;;9.05;7.10;;;;;;;14.13;100.00;95631.16;1026364;28;20030;-77
2023/08/05 01:54:13;;;;;;;9.25;7.45;;;;;;;14.19;100.00;95634.53;1022496;29;20075;-75
2023/08/05 01:54:44;;;;;;;7.63;6.72;;;;;;;14.12;100.00;95626.97;1014819;29;20020;-75
2023/08/05 01:55:14;;;;;;;8.68;7.88;;;;;;;14.18;100.00;95630.28;1018478;28;20035;-75
2023/08/05 01:55:45;;;;;;;8.02;7.20;;;;;;;14.21;100.00;95635.00;1018495;29;20022;-75
2023/08/05 01:56:15;;;;;;;9.25;7.40;;;;;;;14.04;100.00;95615.19;1018731;29;20039;-76
2023/08/05 01:56:45;;;;;;;8.85;6.97;;;;;;;14.22;100.00;95631.28;1014844;29;20028;-78
2023/08/05 01:57:16;;;;;;;8.88;7.30;;;;;;;14.17;100.00;95634.78;1014705;29;20095;-75
2023/08/05 01:57:46;;;;;;;8.93;7.07;;;;;;;14.21;100.00;95627.84;1018574;29;20026;-75
2023/08/05 01:58:17;;;;;;;7.70;6.90;;;;;;;14.14;100.00;95625.59;1018693;28;20090;-74
2023/08/05 01:58:47;;;;;;;8.45;7.18;;;;;;;14.13;100.00;95624.03;1018632;29;20075;-75
2023/08/05 01:59:18;;;;;;;8.07;7.03;;;;;;;14.21;100.00;95629.72;1014792;29;20032;-76
2023/08/05 01:59:48;;;;;;;8.70;7.25;;;;;;;14.21;100.00;95627.06;1018806;29;20924;-75
2023/08/05 02:00:21;;;;;;;8.98;6.80;;;;;;;14.24;100.00;95627.28;1018043;29;20127;-72
2023/08/05 02:00:52;;;;;;;11.88;6.93;;;;;;;14.22;100.00;95626.81;1022851;28;20027;-74
2023/08/05 02:01:22;;;;;;;9.00;7.55;;;;;;;14.19;100.00;95627.38;1014646;29;20435;-76
2023/08/05 02:01:53;;;;;;;11.40;7.15;;;;;;;14.21;100.00;95625.22;1014514;29;20024;-76
2023/08/05 02:02:23;;;;;;;8.55;7.07;;;;;;;14.22;100.00;95629.44;1014275;29;20028;-74
2023/08/05 02:02:54;;;;;;;7.82;7.03;;;;;;;14.22;100.00;95626.81;1014903;29;20032;-74
2023/08/05 02:03:24;;;;;;;7.78;6.97;;;;;;;14.22;100.00;95626.81;1018897;28;20494;-75
2023/08/05 02:03:55;;;;;;;7.70;6.70;;;;;;;14.21;100.00;95625.22;1026497;28;20035;-74
2023/08/05 02:04:25;;;;;;;8.35;7.20;;;;;;;14.21;100.00;95622.59;1026282;28;20034;-74
2023/08/05 02:04:55;;;;;;;8.18;6.18;;;;;;;14.22;100.00;95628.63;1026581;28;20030;-76
2023/08/05 02:05:26;;;;;;;9.68;6.30;;;;;;;14.17;100.00;95616.31;1022366;29;20034;-74
2023/08/05 02:05:56;;;;;;;7.32;5.90;;;;;;;14.18;100.00;95631.06;1014718;29;20039;-75
2023/08/05 02:06:27;;;;;;;7.20;5.53;;;;;;;14.19;100.00;95631.88;1020663;29;20023;-76
2023/08/05 02:06:57;;;;;;;7.65;5.95;;;;;;;14.12;100.00;95624.31;1022612;28;20086;-75
2023/08/05 02:07:28;;;;;;;6.50;5.65;;;;;;;14.18;100.00;95628.44;1022665;28;20027;-77
2023/08/05 02:07:58;;;;;;;8.02;5.47;;;;;;;14.18;100.00;95631.06;1022659;29;20500;-74
2023/08/05 02:08:29;;;;;;;9.13;6.25;;;;;;;14.16;100.00;95627.94;1018571;29;20031;-75
2023/08/05 02:08:59;;;;;;;6.63;4.60;;;;;;;14.21;100.00;95629.72;1014656;29;20024;-74
2023/08/05 02:09:29;;;;;;;7.05;5.00;;;;;;;14.11;100.00;95612.19;1012574;29;20487;-77
2023/08/05 02:10:00;;;;;;;7.45;5.82;;;;;;;14.20;100.00;95630.78;1014759;29;20478;-76
2023/08/05 02:10:30;;;;;;;6.70;5.70;;;;;;;14.18;100.00;95625.78;1010269;29;20068;-75
2023/08/05 02:11:02;;;;;;;7.03;6.13;;;;;;;14.19;100.00;95622.09;1018350;29;20031;-74
2023/08/05 02:11:33;;;;;;;12.50;6.32;;;;;;;14.12;100.00;95614.56;1015121;29;20174;-75
2023/08/05 02:12:03;;;;;;;8.00;5.70;;;;;;;14.18;100.00;95623.16;1018725;29;20028;-75
2023/08/05 02:12:33;;;;;;;7.40;5.90;;;;;;;14.21;100.00;95625.22;1014553;29;20157;-74
2023/08/05 02:13:04;;;;;;;7.90;6.50;;;;;;;14.21;100.00;95619.94;1018251;29;20023;-76
2023/08/05 02:13:35;;;;;;;9.52;6.38;;;;;;;14.16;100.00;95617.41;1022641;28;20031;-75
2023/08/05 02:14:05;;;;;;;7.82;6.18;;;;;;;14.19;100.00;95627.38;1022617;28;20031;-74
2023/08/05 02:14:36;;;;;;;9.05;5.65;;;;;;;14.19;100.00;95619.47;1022212;28;20023;-74
2023/08/05 02:15:06;;;;;;;6.88;5.75;;;;;;;14.14;100.00;95614.25;1022615;29;20027;-75
2023/08/05 02:15:37;;;;;;;6.60;5.90;;;;;;;14.19;100.00;95611.53;1019079;29;20027;-76
2023/08/05 02:16:07;;;;;;;7.55;6.00;;;;;;;14.17;100.00;95612.91;1017751;29;20042;-74
2023/08/05 02:16:38;;;;;;;11.40;6.57;;;;;;;14.17;100.00;95621.59;1021629;28;20023;-74
2023/08/05 02:17:08;;;;;;;6.72;6.03;;;;;;;14.16;100.00;95612.13;1026640;28;20030;-74
2023/08/05 02:17:39;;;;;;;8.10;6.90;;;;;;;14.17;100.00;95618.97;1026385;28;20019;-77
2023/08/05 02:18:09;;;;;;;8.68;6.32;;;;;;;14.17;100.00;95611.03;1026346;28;20026;-73
2023/08/05 02:18:40;;;;;;;7.07;6.43;;;;;;;14.12;100.00;95609.28;1026426;28;20038;-76
2023/08/05 02:19:10;;;;;;;7.60;6.45;;;;;;;14.14;100.00;95614.25;1026643;28;20374;-74
2023/08/05 02:19:41;;;;;;;7.15;5.50;;;;;;;14.15;100.00;95613.16;1024434;28;20065;-76
2023/08/05 02:20:11;;;;;;;8.00;5.75;;;;;;;14.14;100.00;95604.47;1022369;28;20034;-75
2023/08/05 02:20:42;;;;;;;6.57;5.53;;;;;;;14.15;100.00;95607.91;1017811;29;20506;-74
2023/08/05 02:21:12;;;;;;;6.18;5.57;;;;;;;14.13;100.00;95602.13;1017617;29;20028;-76
2023/08/05 02:21:42;;;;;;;5.78;4.90;;;;;;;14.13;100.00;95602.13;1014802;29;20079;-74
2023/08/05 02:22:13;;;;;;;10.70;6.00;;;;;;;14.14;100.00;95601.06;1018690;29;20530;-74
2023/08/05 02:22:43;;;;;;;6.18;5.43;;;;;;;14.12;100.00;95595.31;1022705;29;20066;-75
2023/08/05 02:23:14;;;;;;;8.00;5.28;;;;;;;14.12;100.00;95590.03;1018573;29;20028;-74